sensor_id;sensor_type;location;lat;lon;timestamp;P1;durP1;ratioP1;P2;durP2;ratioP2
58974;SDS011;44751;52.236;5.178;2023-04-24T00:01:54;3.22;;;2.28;;
58974;SDS011;44751;52.236;5.178;2023-04-24T00:04:41;3.65;;;2.05;;
58974;SDS011;44751;52.236;5.178;2023-04-24T00:07:25;3.85;;;1.70;;
58974;SDS011;44751;52.236;5.178;2023-04-24T00:09:55;2.40;;;1.10;;
58974;SDS011;44751;52.236;5.178;2023-04-24T00:12:22;2.30;;;1.25;;
58974;SDS011;44751;52.236;5.178;2023-04-24T00:14:48;1.88;;;0.98;;
58974;SDS011;44751;52.236;5.178;2023-04-24T00:17:15;1.65;;;0.70;;
58974;SDS011;44751;52.236;5.178;2023-04-24T00:19:44;1.63;;;0.90;;
58974;SDS011;44751;52.236;5.178;2023-04-24T00:22:13;1.98;;;1.30;;
58974;SDS011;44751;52.236;5.178;2023-04-24T00:24:40;2.05;;;1.77;;
58974;SDS011;44751;52.236;5.178;2023-04-24T00:27:06;2.40;;;1.58;;
58974;SDS011;44751;52.236;5.178;2023-04-24T00:29:33;2.15;;;1.35;;
58974;SDS011;44751;52.236;5.178;2023-04-24T00:32:02;1.25;;;1.15;;
58974;SDS011;44751;52.236;5.178;2023-04-24T00:34:30;1.00;;;1.00;;
58974;SDS011;44751;52.236;5.178;2023-04-24T00:36:57;2.25;;;1.05;;
58974;SDS011;44751;52.236;5.178;2023-04-24T00:39:24;2.05;;;0.98;;
58974;SDS011;44751;52.236;5.178;2023-04-24T00:41:51;1.65;;;0.82;;
58974;SDS011;44751;52.236;5.178;2023-04-24T00:44:20;3.70;;;1.20;;
58974;SDS011;44751;52.236;5.178;2023-04-24T00:46:47;2.50;;;1.20;;
58974;SDS011;44751;52.236;5.178;2023-04-24T00:49:19;1.30;;;1.20;;
58974;SDS011;44751;52.236;5.178;2023-04-24T00:51:46;1.88;;;1.15;;
58974;SDS011;44751;52.236;5.178;2023-04-24T00:54:16;4.47;;;1.70;;
58974;SDS011;44751;52.236;5.178;2023-04-24T00:56:44;3.35;;;1.70;;
58974;SDS011;44751;52.236;5.178;2023-04-24T00:59:11;3.53;;;1.60;;
58974;SDS011;44751;52.236;5.178;2023-04-24T01:01:39;2.33;;;1.30;;
58974;SDS011;44751;52.236;5.178;2023-04-24T01:04:09;2.03;;;1.33;;
58974;SDS011;44751;52.236;5.178;2023-04-24T01:06:42;1.58;;;1.10;;
58974;SDS011;44751;52.236;5.178;2023-04-24T01:09:10;2.35;;;1.20;;
58974;SDS011;44751;52.236;5.178;2023-04-24T01:11:38;3.17;;;1.25;;
58974;SDS011;44751;52.236;5.178;2023-04-24T01:14:06;5.68;;;1.40;;
58974;SDS011;44751;52.236;5.178;2023-04-24T01:16:43;3.58;;;1.33;;
58974;SDS011;44751;52.236;5.178;2023-04-24T01:19:10;3.17;;;1.15;;
58974;SDS011;44751;52.236;5.178;2023-04-24T01:21:37;2.63;;;1.23;;
58974;SDS011;44751;52.236;5.178;2023-04-24T01:24:05;1.92;;;0.90;;
58974;SDS011;44751;52.236;5.178;2023-04-24T01:26:37;2.67;;;1.00;;
58974;SDS011;44751;52.236;5.178;2023-04-24T01:29:03;2.25;;;0.93;;
58974;SDS011;44751;52.236;5.178;2023-04-24T01:31:30;2.08;;;0.85;;
58974;SDS011;44751;52.236;5.178;2023-04-24T01:33:57;4.10;;;1.10;;
58974;SDS011;44751;52.236;5.178;2023-04-24T01:36:23;2.95;;;1.35;;
58974;SDS011;44751;52.236;5.178;2023-04-24T01:38:58;1.48;;;1.38;;
58974;SDS011;44751;52.236;5.178;2023-04-24T01:41:25;2.45;;;1.77;;
58974;SDS011;44751;52.236;5.178;2023-04-24T01:43:52;2.85;;;1.70;;
58974;SDS011;44751;52.236;5.178;2023-04-24T01:46:19;1.67;;;1.58;;
58974;SDS011;44751;52.236;5.178;2023-04-24T01:48:46;1.88;;;1.65;;
58974;SDS011;44751;52.236;5.178;2023-04-24T01:51:15;2.15;;;1.30;;
58974;SDS011;44751;52.236;5.178;2023-04-24T01:53:41;2.13;;;1.30;;
58974;SDS011;44751;52.236;5.178;2023-04-24T01:56:08;1.48;;;1.30;;
58974;SDS011;44751;52.236;5.178;2023-04-24T01:58:35;1.83;;;1.60;;
58974;SDS011;44751;52.236;5.178;2023-04-24T02:01:05;2.50;;;1.20;;
58974;SDS011;44751;52.236;5.178;2023-04-24T02:03:32;2.08;;;1.52;;
58974;SDS011;44751;52.236;5.178;2023-04-24T02:05:59;1.30;;;1.20;;
58974;SDS011;44751;52.236;5.178;2023-04-24T02:08:25;1.92;;;1.30;;
58974;SDS011;44751;52.236;5.178;2023-04-24T02:10:52;3.08;;;1.45;;
58974;SDS011;44751;52.236;5.178;2023-04-24T02:13:18;1.30;;;1.20;;
58974;SDS011;44751;52.236;5.178;2023-04-24T02:15:49;2.25;;;1.45;;
58974;SDS011;44751;52.236;5.178;2023-04-24T02:18:16;3.00;;;1.60;;
58974;SDS011;44751;52.236;5.178;2023-04-24T02:20:42;2.75;;;1.58;;
58974;SDS011;44751;52.236;5.178;2023-04-24T02:23:09;4.30;;;1.30;;
58974;SDS011;44751;52.236;5.178;2023-04-24T02:25:35;1.90;;;1.10;;
58974;SDS011;44751;52.236;5.178;2023-04-24T02:28:04;2.67;;;1.20;;
58974;SDS011;44751;52.236;5.178;2023-04-24T02:30:31;1.52;;;1.10;;
58974;SDS011;44751;52.236;5.178;2023-04-24T02:32:57;1.63;;;1.00;;
58974;SDS011;44751;52.236;5.178;2023-04-24T02:35:24;0.88;;;0.80;;
58974;SDS011;44751;52.236;5.178;2023-04-24T02:37:50;1.67;;;0.70;;
58974;SDS011;44751;52.236;5.178;2023-04-24T02:40:17;2.63;;;0.77;;
58974;SDS011;44751;52.236;5.178;2023-04-24T02:42:50;2.88;;;0.73;;
58974;SDS011;44751;52.236;5.178;2023-04-24T02:45:16;1.60;;;0.80;;
58974;SDS011;44751;52.236;5.178;2023-04-24T02:47:46;0.80;;;0.80;;
58974;SDS011;44751;52.236;5.178;2023-04-24T02:50:12;1.27;;;0.90;;
58974;SDS011;44751;52.236;5.178;2023-04-24T02:52:41;1.52;;;0.98;;
58974;SDS011;44751;52.236;5.178;2023-04-24T02:55:08;1.38;;;1.20;;
58974;SDS011;44751;52.236;5.178;2023-04-24T02:57:34;1.13;;;1.02;;
58974;SDS011;44751;52.236;5.178;2023-04-24T03:00:01;3.67;;;1.38;;
58974;SDS011;44751;52.236;5.178;2023-04-24T03:02:31;1.50;;;1.40;;
58974;SDS011;44751;52.236;5.178;2023-04-24T03:05:04;2.85;;;1.58;;
58974;SDS011;44751;52.236;5.178;2023-04-24T03:07:32;1.63;;;1.52;;
58974;SDS011;44751;52.236;5.178;2023-04-24T03:09:59;2.00;;;1.73;;
58974;SDS011;44751;52.236;5.178;2023-04-24T03:12:25;2.20;;;1.80;;
58974;SDS011;44751;52.236;5.178;2023-04-24T03:14:52;2.70;;;1.80;;
58974;SDS011;44751;52.236;5.178;2023-04-24T03:17:21;2.58;;;1.83;;
58974;SDS011;44751;52.236;5.178;2023-04-24T03:19:48;2.70;;;1.90;;
58974;SDS011;44751;52.236;5.178;2023-04-24T03:22:14;4.20;;;2.50;;
58974;SDS011;44751;52.236;5.178;2023-04-24T03:24:41;2.85;;;2.30;;
58974;SDS011;44751;52.236;5.178;2023-04-24T03:27:07;2.83;;;2.10;;
58974;SDS011;44751;52.236;5.178;2023-04-24T03:29:36;3.97;;;2.40;;
58974;SDS011;44751;52.236;5.178;2023-04-24T03:32:03;3.38;;;2.33;;
58974;SDS011;44751;52.236;5.178;2023-04-24T03:34:29;2.45;;;2.25;;
58974;SDS011;44751;52.236;5.178;2023-04-24T03:36:56;3.40;;;2.17;;
58974;SDS011;44751;52.236;5.178;2023-04-24T03:39:22;3.47;;;2.30;;
58974;SDS011;44751;52.236;5.178;2023-04-24T03:41:50;3.70;;;2.33;;
58974;SDS011;44751;52.236;5.178;2023-04-24T03:44:19;3.95;;;2.50;;
58974;SDS011;44751;52.236;5.178;2023-04-24T03:46:45;2.40;;;2.00;;
58974;SDS011;44751;52.236;5.178;2023-04-24T03:49:12;2.55;;;2.35;;
58974;SDS011;44751;52.236;5.178;2023-04-24T03:51:39;2.47;;;2.05;;
58974;SDS011;44751;52.236;5.178;2023-04-24T03:54:05;2.83;;;2.20;;
58974;SDS011;44751;52.236;5.178;2023-04-24T03:56:38;3.80;;;2.25;;
58974;SDS011;44751;52.236;5.178;2023-04-24T03:59:05;2.83;;;2.33;;
58974;SDS011;44751;52.236;5.178;2023-04-24T04:01:31;3.33;;;2.50;;
58974;SDS011;44751;52.236;5.178;2023-04-24T04:04:01;3.42;;;2.20;;
58974;SDS011;44751;52.236;5.178;2023-04-24T04:06:30;2.55;;;1.80;;
58974;SDS011;44751;52.236;5.178;2023-04-24T04:08:57;3.97;;;2.00;;
58974;SDS011;44751;52.236;5.178;2023-04-24T04:11:24;1.92;;;1.67;;
58974;SDS011;44751;52.236;5.178;2023-04-24T04:13:51;3.08;;;1.63;;
58974;SDS011;44751;52.236;5.178;2023-04-24T04:16:18;3.47;;;2.00;;
58974;SDS011;44751;52.236;5.178;2023-04-24T04:18:52;2.25;;;1.63;;
58974;SDS011;44751;52.236;5.178;2023-04-24T04:21:18;2.42;;;1.75;;
58974;SDS011;44751;52.236;5.178;2023-04-24T04:23:45;3.80;;;1.90;;
58974;SDS011;44751;52.236;5.178;2023-04-24T04:26:11;3.35;;;1.77;;
58974;SDS011;44751;52.236;5.178;2023-04-24T04:28:40;2.20;;;1.85;;
58974;SDS011;44751;52.236;5.178;2023-04-24T04:31:11;4.50;;;2.45;;
58974;SDS011;44751;52.236;5.178;2023-04-24T04:33:37;2.72;;;1.80;;
58974;SDS011;44751;52.236;5.178;2023-04-24T04:36:04;3.97;;;2.00;;
58974;SDS011;44751;52.236;5.178;2023-04-24T04:38:31;4.20;;;2.08;;
58974;SDS011;44751;52.236;5.178;2023-04-24T04:40:58;4.25;;;2.03;;
58974;SDS011;44751;52.236;5.178;2023-04-24T04:43:30;4.03;;;2.28;;
58974;SDS011;44751;52.236;5.178;2023-04-24T04:45:57;2.58;;;2.35;;
58974;SDS011;44751;52.236;5.178;2023-04-24T04:48:25;3.75;;;2.20;;
58974;SDS011;44751;52.236;5.178;2023-04-24T04:50:53;3.15;;;2.28;;
58974;SDS011;44751;52.236;5.178;2023-04-24T04:53:20;3.63;;;2.63;;
58974;SDS011;44751;52.236;5.178;2023-04-24T04:55:49;3.65;;;2.33;;
58974;SDS011;44751;52.236;5.178;2023-04-24T04:58:16;3.45;;;2.00;;
58974;SDS011;44751;52.236;5.178;2023-04-24T05:00:42;2.40;;;1.80;;
58974;SDS011;44751;52.236;5.178;2023-04-24T05:03:09;5.18;;;1.95;;
58974;SDS011;44751;52.236;5.178;2023-04-24T05:05:35;3.50;;;1.98;;
58974;SDS011;44751;52.236;5.178;2023-04-24T05:08:12;3.42;;;1.70;;
58974;SDS011;44751;52.236;5.178;2023-04-24T05:10:38;3.05;;;1.80;;
58974;SDS011;44751;52.236;5.178;2023-04-24T05:13:05;2.63;;;1.60;;
58974;SDS011;44751;52.236;5.178;2023-04-24T05:15:31;1.77;;;1.10;;
58974;SDS011;44751;52.236;5.178;2023-04-24T05:18:00;1.95;;;1.40;;
58974;SDS011;44751;52.236;5.178;2023-04-24T05:20:29;1.35;;;0.95;;
58974;SDS011;44751;52.236;5.178;2023-04-24T05:22:55;1.52;;;0.90;;
58974;SDS011;44751;52.236;5.178;2023-04-24T05:25:22;0.82;;;0.80;;
58974;SDS011;44751;52.236;5.178;2023-04-24T05:27:48;1.00;;;0.70;;
58974;SDS011;44751;52.236;5.178;2023-04-24T05:30:15;1.38;;;0.75;;
58974;SDS011;44751;52.236;5.178;2023-04-24T05:32:49;2.13;;;0.90;;
58974;SDS011;44751;52.236;5.178;2023-04-24T05:35:16;2.38;;;0.80;;
58974;SDS011;44751;52.236;5.178;2023-04-24T05:37:43;3.78;;;0.90;;
58974;SDS011;44751;52.236;5.178;2023-04-24T05:40:10;1.13;;;0.95;;
58974;SDS011;44751;52.236;5.178;2023-04-24T05:42:44;1.65;;;0.80;;
58974;SDS011;44751;52.236;5.178;2023-04-24T05:45:10;2.03;;;0.90;;
58974;SDS011;44751;52.236;5.178;2023-04-24T05:47:41;1.10;;;0.90;;
58974;SDS011;44751;52.236;5.178;2023-04-24T05:50:11;2.47;;;0.75;;
58974;SDS011;44751;52.236;5.178;2023-04-24T05:52:40;1.30;;;0.63;;
58974;SDS011;44751;52.236;5.178;2023-04-24T05:55:07;1.35;;;0.50;;
58974;SDS011;44751;52.236;5.178;2023-04-24T05:57:34;3.47;;;0.70;;
58974;SDS011;44751;52.236;5.178;2023-04-24T06:00:00;0.73;;;0.50;;
58974;SDS011;44751;52.236;5.178;2023-04-24T06:02:27;1.85;;;0.80;;
58974;SDS011;44751;52.236;5.178;2023-04-24T06:04:58;2.10;;;0.90;;
58974;SDS011;44751;52.236;5.178;2023-04-24T06:07:26;2.70;;;1.48;;
58974;SDS011;44751;52.236;5.178;2023-04-24T06:09:53;3.42;;;2.65;;
58974;SDS011;44751;52.236;5.178;2023-04-24T06:12:19;11.88;;;6.32;;
58974;SDS011;44751;52.236;5.178;2023-04-24T06:14:46;14.52;;;8.85;;
58974;SDS011;44751;52.236;5.178;2023-04-24T06:17:17;16.60;;;9.93;;
58974;SDS011;44751;52.236;5.178;2023-04-24T06:19:44;19.67;;;11.82;;
58974;SDS011;44751;52.236;5.178;2023-04-24T06:22:11;21.73;;;12.73;;
58974;SDS011;44751;52.236;5.178;2023-04-24T06:24:37;24.15;;;12.43;;
58974;SDS011;44751;52.236;5.178;2023-04-24T06:27:04;20.40;;;12.68;;
58974;SDS011;44751;52.236;5.178;2023-04-24T06:29:30;20.90;;;11.82;;
58974;SDS011;44751;52.236;5.178;2023-04-24T06:31:57;20.60;;;12.23;;
58974;SDS011;44751;52.236;5.178;2023-04-24T06:34:24;22.00;;;12.70;;
58974;SDS011;44751;52.236;5.178;2023-04-24T06:36:50;20.20;;;12.30;;
58974;SDS011;44751;52.236;5.178;2023-04-24T06:39:17;21.30;;;11.98;;
58974;SDS011;44751;52.236;5.178;2023-04-24T06:41:44;16.92;;;10.60;;
58974;SDS011;44751;52.236;5.178;2023-04-24T06:44:13;21.17;;;11.43;;
58974;SDS011;44751;52.236;5.178;2023-04-24T06:47:25;18.88;;;11.82;;
58974;SDS011;44751;52.236;5.178;2023-04-24T06:50:12;16.48;;;10.60;;
58974;SDS011;44751;52.236;5.178;2023-04-24T06:52:41;14.82;;;10.50;;
58974;SDS011;44751;52.236;5.178;2023-04-24T06:55:09;20.65;;;10.88;;
58974;SDS011;44751;52.236;5.178;2023-04-24T06:57:38;16.98;;;9.85;;
58974;SDS011;44751;52.236;5.178;2023-04-24T07:00:05;19.58;;;9.35;;
58974;SDS011;44751;52.236;5.178;2023-04-24T07:02:34;20.05;;;9.57;;
58974;SDS011;44751;52.236;5.178;2023-04-24T07:05:00;20.70;;;9.13;;
58974;SDS011;44751;52.236;5.178;2023-04-24T07:07:33;19.33;;;8.98;;
58974;SDS011;44751;52.236;5.178;2023-04-24T07:10:14;17.38;;;8.73;;
58974;SDS011;44751;52.236;5.178;2023-04-24T07:13:10;15.05;;;8.20;;
58974;SDS011;44751;52.236;5.178;2023-04-24T07:15:36;14.18;;;8.98;;
58974;SDS011;44751;52.236;5.178;2023-04-24T07:18:03;17.60;;;8.77;;
58974;SDS011;44751;52.236;5.178;2023-04-24T07:20:29;16.48;;;8.52;;
58974;SDS011;44751;52.236;5.178;2023-04-24T07:22:56;21.83;;;8.30;;
58974;SDS011;44751;52.236;5.178;2023-04-24T07:25:22;21.75;;;9.02;;
58974;SDS011;44751;52.236;5.178;2023-04-24T07:27:49;17.08;;;7.78;;
58974;SDS011;44751;52.236;5.178;2023-04-24T07:30:15;18.08;;;8.10;;
58974;SDS011;44751;52.236;5.178;2023-04-24T07:32:42;17.30;;;7.95;;
58974;SDS011;44751;52.236;5.178;2023-04-24T07:35:12;15.50;;;8.10;;
58974;SDS011;44751;52.236;5.178;2023-04-24T07:37:39;15.98;;;8.35;;
58974;SDS011;44751;52.236;5.178;2023-04-24T07:40:13;15.30;;;7.55;;
58974;SDS011;44751;52.236;5.178;2023-04-24T07:42:40;18.75;;;7.63;;
58974;SDS011;44751;52.236;5.178;2023-04-24T07:45:16;20.67;;;9.02;;
58974;SDS011;44751;52.236;5.178;2023-04-24T07:47:43;17.45;;;7.38;;
58974;SDS011;44751;52.236;5.178;2023-04-24T07:50:10;13.07;;;6.18;;
58974;SDS011;44751;52.236;5.178;2023-04-24T07:52:37;19.20;;;7.10;;
58974;SDS011;44751;52.236;5.178;2023-04-24T07:55:09;17.17;;;5.53;;
58974;SDS011;44751;52.236;5.178;2023-04-24T07:57:35;18.98;;;5.70;;
58974;SDS011;44751;52.236;5.178;2023-04-24T08:00:03;10.88;;;4.90;;
58974;SDS011;44751;52.236;5.178;2023-04-24T08:02:30;17.83;;;5.65;;
58974;SDS011;44751;52.236;5.178;2023-04-24T08:04:57;13.50;;;5.18;;
58974;SDS011;44751;52.236;5.178;2023-04-24T08:07:27;21.15;;;5.35;;
58974;SDS011;44751;52.236;5.178;2023-04-24T08:09:54;13.40;;;5.30;;
58974;SDS011;44751;52.236;5.178;2023-04-24T08:12:21;10.50;;;3.65;;
58974;SDS011;44751;52.236;5.178;2023-04-24T08:14:47;13.77;;;3.60;;
58974;SDS011;44751;52.236;5.178;2023-04-24T08:17:23;17.00;;;4.60;;
58974;SDS011;44751;52.236;5.178;2023-04-24T08:19:50;12.50;;;4.47;;
58974;SDS011;44751;52.236;5.178;2023-04-24T08:22:18;14.73;;;4.10;;
58974;SDS011;44751;52.236;5.178;2023-04-24T08:24:44;15.30;;;3.83;;
58974;SDS011;44751;52.236;5.178;2023-04-24T08:27:29;13.93;;;4.38;;
58974;SDS011;44751;52.236;5.178;2023-04-24T08:30:07;21.98;;;4.45;;
58974;SDS011;44751;52.236;5.178;2023-04-24T08:32:56;18.08;;;4.28;;
58974;SDS011;44751;52.236;5.178;2023-04-24T08:35:35;13.57;;;3.60;;
58974;SDS011;44751;52.236;5.178;2023-04-24T08:38:01;16.17;;;3.28;;
58974;SDS011;44751;52.236;5.178;2023-04-24T08:40:28;13.13;;;3.15;;
58974;SDS011;44751;52.236;5.178;2023-04-24T08:42:55;13.25;;;3.15;;
58974;SDS011;44751;52.236;5.178;2023-04-24T08:45:23;10.68;;;3.05;;
58974;SDS011;44751;52.236;5.178;2023-04-24T08:47:51;9.98;;;2.88;;
58974;SDS011;44751;52.236;5.178;2023-04-24T08:50:20;13.18;;;2.80;;
58974;SDS011;44751;52.236;5.178;2023-04-24T08:52:49;13.25;;;3.05;;
58974;SDS011;44751;52.236;5.178;2023-04-24T08:55:18;13.05;;;2.45;;
58974;SDS011;44751;52.236;5.178;2023-04-24T08:57:50;10.07;;;2.80;;
58974;SDS011;44751;52.236;5.178;2023-04-24T09:00:19;11.20;;;3.13;;
58974;SDS011;44751;52.236;5.178;2023-04-24T09:02:47;12.02;;;2.80;;
58974;SDS011;44751;52.236;5.178;2023-04-24T09:05:18;11.20;;;2.67;;
58974;SDS011;44751;52.236;5.178;2023-04-24T09:07:53;9.38;;;2.50;;
58974;SDS011;44751;52.236;5.178;2023-04-24T09:10:21;16.20;;;3.40;;
58974;SDS011;44751;52.236;5.178;2023-04-24T09:12:50;14.80;;;3.55;;
58974;SDS011;44751;52.236;5.178;2023-04-24T09:15:20;6.80;;;2.70;;
58974;SDS011;44751;52.236;5.178;2023-04-24T09:17:47;10.85;;;2.78;;
58974;SDS011;44751;52.236;5.178;2023-04-24T09:20:13;11.80;;;2.85;;
58974;SDS011;44751;52.236;5.178;2023-04-24T09:22:40;12.13;;;3.55;;
58974;SDS011;44751;52.236;5.178;2023-04-24T09:25:09;10.10;;;3.42;;
58974;SDS011;44751;52.236;5.178;2023-04-24T09:27:40;11.63;;;2.65;;
58974;SDS011;44751;52.236;5.178;2023-04-24T09:33:12;13.07;;;2.95;;
58974;SDS011;44751;52.236;5.178;2023-04-24T09:35:43;11.32;;;2.30;;
58974;SDS011;44751;52.236;5.178;2023-04-24T09:38:15;11.50;;;2.83;;
58974;SDS011;44751;52.236;5.178;2023-04-24T09:40:42;10.63;;;2.53;;
58974;SDS011;44751;52.236;5.178;2023-04-24T09:43:12;14.90;;;2.90;;
58974;SDS011;44751;52.236;5.178;2023-04-24T09:45:39;14.70;;;2.72;;
58974;SDS011;44751;52.236;5.178;2023-04-24T09:48:08;12.73;;;2.83;;
58974;SDS011;44751;52.236;5.178;2023-04-24T09:50:36;11.38;;;2.97;;
58974;SDS011;44751;52.236;5.178;2023-04-24T09:53:03;10.75;;;2.67;;
58974;SDS011;44751;52.236;5.178;2023-04-24T09:55:33;11.75;;;2.42;;
58974;SDS011;44751;52.236;5.178;2023-04-24T09:58:08;10.07;;;2.47;;
58974;SDS011;44751;52.236;5.178;2023-04-24T10:00:36;6.63;;;1.90;;
58974;SDS011;44751;52.236;5.178;2023-04-24T10:03:03;10.18;;;3.03;;
58974;SDS011;44751;52.236;5.178;2023-04-24T10:05:34;6.07;;;1.70;;
58974;SDS011;44751;52.236;5.178;2023-04-24T10:08:07;7.47;;;1.65;;
58974;SDS011;44751;52.236;5.178;2023-04-24T10:10:38;6.32;;;1.92;;
58974;SDS011;44751;52.236;5.178;2023-04-24T10:13:07;7.15;;;1.77;;
58974;SDS011;44751;52.236;5.178;2023-04-24T10:15:34;7.35;;;1.83;;
58974;SDS011;44751;52.236;5.178;2023-04-24T10:18:10;6.78;;;1.85;;
58974;SDS011;44751;52.236;5.178;2023-04-24T10:20:38;3.72;;;1.60;;
58974;SDS011;44751;52.236;5.178;2023-04-24T10:23:06;8.00;;;1.85;;
58974;SDS011;44751;52.236;5.178;2023-04-24T10:25:33;4.60;;;1.35;;
58974;SDS011;44751;52.236;5.178;2023-04-24T10:28:04;4.20;;;1.40;;
58974;SDS011;44751;52.236;5.178;2023-04-24T10:30:39;6.53;;;1.55;;
58974;SDS011;44751;52.236;5.178;2023-04-24T10:40:25;7.90;;;1.30;;
58974;SDS011;44751;52.236;5.178;2023-04-24T10:42:53;3.92;;;1.20;;
58974;SDS011;44751;52.236;5.178;2023-04-24T10:45:20;7.43;;;1.60;;
58974;SDS011;44751;52.236;5.178;2023-04-24T10:47:52;9.52;;;1.52;;
58974;SDS011;44751;52.236;5.178;2023-04-24T10:53:29;3.90;;;1.08;;
58974;SDS011;44751;52.236;5.178;2023-04-24T10:58:41;6.28;;;1.02;;
58974;SDS011;44751;52.236;5.178;2023-04-24T11:01:28;8.25;;;1.17;;
58974;SDS011;44751;52.236;5.178;2023-04-24T11:03:57;5.72;;;1.15;;
58974;SDS011;44751;52.236;5.178;2023-04-24T11:06:34;3.08;;;1.17;;
58974;SDS011;44751;52.236;5.178;2023-04-24T11:09:09;4.85;;;1.38;;
58974;SDS011;44751;52.236;5.178;2023-04-24T11:11:38;4.47;;;1.35;;
58974;SDS011;44751;52.236;5.178;2023-04-24T11:14:10;8.25;;;1.38;;
58974;SDS011;44751;52.236;5.178;2023-04-24T11:16:53;5.35;;;0.90;;
58974;SDS011;44751;52.236;5.178;2023-04-24T11:19:22;3.80;;;0.90;;
58974;SDS011;44751;52.236;5.178;2023-04-24T11:22:04;3.80;;;0.80;;
58974;SDS011;44751;52.236;5.178;2023-04-24T11:24:49;5.63;;;0.85;;
58974;SDS011;44751;52.236;5.178;2023-04-24T11:27:20;1.35;;;0.50;;
58974;SDS011;44751;52.236;5.178;2023-04-24T11:32:29;1.10;;;0.40;;
58974;SDS011;44751;52.236;5.178;2023-04-24T11:37:46;1.67;;;0.80;;
58974;SDS011;44751;52.236;5.178;2023-04-24T11:40:16;1.63;;;0.60;;
58974;SDS011;44751;52.236;5.178;2023-04-24T11:42:46;3.53;;;0.65;;
58974;SDS011;44751;52.236;5.178;2023-04-24T11:45:31;3.42;;;0.80;;
58974;SDS011;44751;52.236;5.178;2023-04-24T11:47:58;8.73;;;1.10;;
58974;SDS011;44751;52.236;5.178;2023-04-24T11:50:25;3.33;;;0.98;;
58974;SDS011;44751;52.236;5.178;2023-04-24T11:52:56;7.32;;;1.20;;
58974;SDS011;44751;52.236;5.178;2023-04-24T11:57:57;4.70;;;1.05;;
58974;SDS011;44751;52.236;5.178;2023-04-24T12:00:27;3.80;;;0.88;;
58974;SDS011;44751;52.236;5.178;2023-04-24T12:03:09;4.37;;;1.10;;
58974;SDS011;44751;52.236;5.178;2023-04-24T12:05:37;4.10;;;1.00;;
58974;SDS011;44751;52.236;5.178;2023-04-24T12:08:05;5.25;;;1.05;;
58974;SDS011;44751;52.236;5.178;2023-04-24T12:10:37;4.53;;;0.95;;
58974;SDS011;44751;52.236;5.178;2023-04-24T12:13:04;4.35;;;0.90;;
58974;SDS011;44751;52.236;5.178;2023-04-24T12:15:30;4.88;;;1.40;;
58974;SDS011;44751;52.236;5.178;2023-04-24T12:17:57;3.47;;;1.45;;
58974;SDS011;44751;52.236;5.178;2023-04-24T12:20:35;5.22;;;1.25;;
58974;SDS011;44751;52.236;5.178;2023-04-24T12:23:05;4.93;;;1.30;;
58974;SDS011;44751;52.236;5.178;2023-04-24T12:25:33;4.15;;;1.00;;
58974;SDS011;44751;52.236;5.178;2023-04-24T12:28:34;4.85;;;1.35;;
58974;SDS011;44751;52.236;5.178;2023-04-24T12:31:17;12.18;;;1.67;;
58974;SDS011;44751;52.236;5.178;2023-04-24T12:37:19;11.32;;;1.85;;
58974;SDS011;44751;52.236;5.178;2023-04-24T12:42:30;12.20;;;2.08;;
58974;SDS011;44751;52.236;5.178;2023-04-24T12:44:58;10.85;;;1.92;;
58974;SDS011;44751;52.236;5.178;2023-04-24T12:47:42;10.45;;;2.65;;
58974;SDS011;44751;52.236;5.178;2023-04-24T12:50:15;10.15;;;2.72;;
58974;SDS011;44751;52.236;5.178;2023-04-24T12:52:45;12.05;;;2.45;;
58974;SDS011;44751;52.236;5.178;2023-04-24T12:55:11;13.23;;;3.15;;
58974;SDS011;44751;52.236;5.178;2023-04-24T12:57:38;14.88;;;2.83;;
58974;SDS011;44751;52.236;5.178;2023-04-24T13:00:06;10.60;;;2.53;;
58974;SDS011;44751;52.236;5.178;2023-04-24T13:02:34;9.65;;;2.70;;
58974;SDS011;44751;52.236;5.178;2023-04-24T13:05:03;18.15;;;3.10;;
58974;SDS011;44751;52.236;5.178;2023-04-24T13:07:32;12.70;;;2.83;;
58974;SDS011;44751;52.236;5.178;2023-04-24T13:09:59;12.30;;;2.90;;
58974;SDS011;44751;52.236;5.178;2023-04-24T13:12:25;16.00;;;2.92;;
58974;SDS011;44751;52.236;5.178;2023-04-24T13:14:52;12.07;;;2.40;;
58974;SDS011;44751;52.236;5.178;2023-04-24T13:17:21;14.10;;;3.15;;
58974;SDS011;44751;52.236;5.178;2023-04-24T13:19:50;9.55;;;2.22;;
58974;SDS011;44751;52.236;5.178;2023-04-24T13:22:17;10.43;;;2.15;;
58974;SDS011;44751;52.236;5.178;2023-04-24T13:24:44;9.95;;;2.80;;
58974;SDS011;44751;52.236;5.178;2023-04-24T13:27:15;15.95;;;3.63;;
58974;SDS011;44751;52.236;5.178;2023-04-24T13:29:44;11.55;;;3.35;;
58974;SDS011;44751;52.236;5.178;2023-04-24T13:32:11;10.40;;;2.50;;
58974;SDS011;44751;52.236;5.178;2023-04-24T13:34:38;10.00;;;2.80;;
58974;SDS011;44751;52.236;5.178;2023-04-24T13:37:05;12.88;;;2.88;;
58974;SDS011;44751;52.236;5.178;2023-04-24T13:39:32;14.20;;;2.95;;
58974;SDS011;44751;52.236;5.178;2023-04-24T13:42:02;11.55;;;3.03;;
58974;SDS011;44751;52.236;5.178;2023-04-24T13:44:29;9.43;;;2.47;;
58974;SDS011;44751;52.236;5.178;2023-04-24T13:46:58;13.27;;;2.53;;
58974;SDS011;44751;52.236;5.178;2023-04-24T13:49:25;12.13;;;2.53;;
58974;SDS011;44751;52.236;5.178;2023-04-24T13:51:53;10.30;;;2.90;;
58974;SDS011;44751;52.236;5.178;2023-04-24T13:54:26;11.07;;;2.97;;
58974;SDS011;44751;52.236;5.178;2023-04-24T13:56:52;10.75;;;3.50;;
58974;SDS011;44751;52.236;5.178;2023-04-24T13:59:19;8.75;;;3.00;;
58974;SDS011;44751;52.236;5.178;2023-04-24T14:01:47;15.15;;;3.00;;
58974;SDS011;44751;52.236;5.178;2023-04-24T14:04:23;7.95;;;2.47;;
58974;SDS011;44751;52.236;5.178;2023-04-24T14:06:50;11.13;;;2.58;;
58974;SDS011;44751;52.236;5.178;2023-04-24T14:09:16;10.73;;;3.00;;
58974;SDS011;44751;52.236;5.178;2023-04-24T14:11:43;13.60;;;2.95;;
58974;SDS011;44751;52.236;5.178;2023-04-24T14:14:10;9.15;;;3.20;;
58974;SDS011;44751;52.236;5.178;2023-04-24T14:16:40;13.68;;;3.10;;
58974;SDS011;44751;52.236;5.178;2023-04-24T14:19:07;11.10;;;2.67;;
58974;SDS011;44751;52.236;5.178;2023-04-24T14:21:33;10.38;;;2.65;;
58974;SDS011;44751;52.236;5.178;2023-04-24T14:24:00;13.13;;;3.65;;
58974;SDS011;44751;52.236;5.178;2023-04-24T14:26:29;12.13;;;3.20;;
58974;SDS011;44751;52.236;5.178;2023-04-24T14:28:55;15.07;;;3.08;;
58974;SDS011;44751;52.236;5.178;2023-04-24T14:31:23;9.65;;;2.47;;
58974;SDS011;44751;52.236;5.178;2023-04-24T14:33:50;7.63;;;2.10;;
58974;SDS011;44751;52.236;5.178;2023-04-24T14:36:17;8.23;;;2.22;;
58974;SDS011;44751;52.236;5.178;2023-04-24T14:38:46;7.93;;;2.22;;
58974;SDS011;44751;52.236;5.178;2023-04-24T14:41:17;6.05;;;2.42;;
58974;SDS011;44751;52.236;5.178;2023-04-24T14:43:52;10.75;;;2.67;;
58974;SDS011;44751;52.236;5.178;2023-04-24T14:49:41;12.13;;;2.90;;
58974;SDS011;44751;52.236;5.178;2023-04-24T14:52:36;9.95;;;3.55;;
58974;SDS011;44751;52.236;5.178;2023-04-24T16:12:56;12.75;;;3.10;;
58974;SDS011;44751;52.236;5.178;2023-04-24T16:15:25;11.95;;;3.85;;
58974;SDS011;44751;52.236;5.178;2023-04-24T16:17:56;12.40;;;3.53;;
58974;SDS011;44751;52.236;5.178;2023-04-24T16:20:22;12.10;;;2.60;;
58974;SDS011;44751;52.236;5.178;2023-04-24T16:22:49;15.10;;;3.83;;
58974;SDS011;44751;52.236;5.178;2023-04-24T16:25:15;11.75;;;3.38;;
58974;SDS011;44751;52.236;5.178;2023-04-24T16:27:42;17.92;;;4.03;;
58974;SDS011;44751;52.236;5.178;2023-04-24T16:30:14;13.27;;;3.75;;
58974;SDS011;44751;52.236;5.178;2023-04-24T20:01:36;5.90;;;2.17;;
58974;SDS011;44751;52.236;5.178;2023-04-24T20:04:07;2.50;;;1.02;;
58974;SDS011;44751;52.236;5.178;2023-04-24T20:06:35;4.78;;;1.30;;
58974;SDS011;44751;52.236;5.178;2023-04-24T20:09:02;4.88;;;2.30;;
58974;SDS011;44751;52.236;5.178;2023-04-24T20:11:30;6.30;;;2.17;;
58974;SDS011;44751;52.236;5.178;2023-04-24T20:13:56;5.78;;;1.63;;
58974;SDS011;44751;52.236;5.178;2023-04-24T20:16:25;5.65;;;1.40;;